Aeroporto :
LOGIN :

Iscrizione | Disclaimer

   EN    FR    IT 

 










Sommario :    VFR   VFR Marginale   IFR   IFR Intensivo   IFR Molto Intensivo
Visibilità : 
Base nubi : 
>= 8 km
>= 3000ft
5 / 8 km
1000 / 3000 ft
1500m / 5 km
500 / 1000 ft
800 / 1500m
200 / 500 ft
< 800m
< 200 ft
Simboli :   Temporali  Nebbia  Neve Forte  Precipitazioni Forti  Vento > 20 kt
SIGMETs :   Varie  Temporali  Ghiacco  Turbolenza  Onda orograficha  Ceneri Vulcaniche






- Altitudine del aeroporto : 39 ft


ETNH - Hohn AB

ULTIMO METAR :
  • 251820Z 29010KT 9999 FEW017 SCT060 12/08 Q1032 BLU+

METARs OBSOLETI :
  • 251720Z 29014KT 9999 FEW017 SCT038 13/09 Q1031 BLU+
  • 251620Z 30014KT 9999 FEW025 14/09 Q1031 BLU+
  • 251557Z 28016KT 9999 FEW025 15/09 Q1031 BLU+FCST CANCEL

TAF TAF ETNH
Valido dal 25 a 18 ore il 26 a 05 ore UTC


251700Z 2518/2605 30005KT 9000 NSW SCT030
TEMPO 2521/2605 VRB03KT 5000 MIFG FEW030
PROB30 2602/2605 VRB01KT 0500 FG BKN001 BY ETGL



MetMap, La meteo Aeronautica in un colpo d'occhio ! - Copyright ORBIFLY Dicembre 2007 - Disclaimer

ORBIFLY MET'MAP TEAM :

Programmazione e sviluppo : Alexandra Zaïnal
Concezione : Baudouin d'Aumeries
Aiuto per la programmazione : Marc-Olivier Méhu
Supporto tecnico e logistico : Manuel Goepfert
Aiuto per la traduzione : Arnaldo La Scala

Contatto : metmap@orbifly.com




FONTI E CREDITI :

   NOAA